sensor_id;sensor_type;location;lat;lon;timestamp;temperature;humidity
12446;DHT22;6287;50.984;7.022;2023-07-20T00:00:15;17.80;99.90
12446;DHT22;6287;50.984;7.022;2023-07-20T00:02:41;17.80;99.90
12446;DHT22;6287;50.984;7.022;2023-07-20T00:05:07;17.80;99.90
12446;DHT22;6287;50.984;7.022;2023-07-20T00:07:35;17.80;99.90
12446;DHT22;6287;50.984;7.022;2023-07-20T00:10:03;17.80;99.90
12446;DHT22;6287;50.984;7.022;2023-07-20T00:12:31;17.80;99.90
12446;DHT22;6287;50.984;7.022;2023-07-20T00:15:01;17.80;99.90
12446;DHT22;6287;50.984;7.022;2023-07-20T00:17:29;17.80;99.90
12446;DHT22;6287;50.984;7.022;2023-07-20T00:19:57;17.80;99.90
12446;DHT22;6287;50.984;7.022;2023-07-20T00:22:23;17.90;99.90
12446;DHT22;6287;50.984;7.022;2023-07-20T00:24:48;17.90;99.90
12446;DHT22;6287;50.984;7.022;2023-07-20T00:27:15;17.90;99.90
12446;DHT22;6287;50.984;7.022;2023-07-20T00:29:40;17.90;99.90
12446;DHT22;6287;50.984;7.022;2023-07-20T00:32:06;17.90;99.90
12446;DHT22;6287;50.984;7.022;2023-07-20T00:34:34;17.90;99.90
12446;DHT22;6287;50.984;7.022;2023-07-20T00:37:02;17.90;99.90
12446;DHT22;6287;50.984;7.022;2023-07-20T00:39:28;17.90;99.90
12446;DHT22;6287;50.984;7.022;2023-07-20T00:41:53;18.00;99.90
12446;DHT22;6287;50.984;7.022;2023-07-20T00:44:19;18.00;99.90
12446;DHT22;6287;50.984;7.022;2023-07-20T00:46:47;18.00;99.90
12446;DHT22;6287;50.984;7.022;2023-07-20T00:49:14;18.00;99.90
12446;DHT22;6287;50.984;7.022;2023-07-20T00:51:39;18.00;99.90
12446;DHT22;6287;50.984;7.022;2023-07-20T00:54:08;18.00;99.90
12446;DHT22;6287;50.984;7.022;2023-07-20T00:56:38;18.00;99.90
12446;DHT22;6287;50.984;7.022;2023-07-20T00:59:04;18.00;99.90
12446;DHT22;6287;50.984;7.022;2023-07-20T01:01:30;18.00;99.90
12446;DHT22;6287;50.984;7.022;2023-07-20T01:03:55;18.00;99.90
12446;DHT22;6287;50.984;7.022;2023-07-20T01:14:26;18.00;99.90
12446;DHT22;6287;50.984;7.022;2023-07-20T01:16:52;18.00;99.90
12446;DHT22;6287;50.984;7.022;2023-07-20T01:19:20;18.00;99.90
12446;DHT22;6287;50.984;7.022;2023-07-20T01:33:03;18.10;99.90
12446;DHT22;6287;50.984;7.022;2023-07-20T01:35:30;18.10;99.90
12446;DHT22;6287;50.984;7.022;2023-07-20T01:37:58;18.10;99.90
12446;DHT22;6287;50.984;7.022;2023-07-20T01:40:28;18.10;99.90
12446;DHT22;6287;50.984;7.022;2023-07-20T01:42:54;18.10;99.90
12446;DHT22;6287;50.984;7.022;2023-07-20T01:45:20;18.00;99.90
12446;DHT22;6287;50.984;7.022;2023-07-20T01:47:46;18.00;99.90
12446;DHT22;6287;50.984;7.022;2023-07-20T01:50:11;18.00;99.90
12446;DHT22;6287;50.984;7.022;2023-07-20T01:52:41;17.90;99.90
12446;DHT22;6287;50.984;7.022;2023-07-20T01:55:08;17.90;99.90
12446;DHT22;6287;50.984;7.022;2023-07-20T01:57:34;17.90;99.90
12446;DHT22;6287;50.984;7.022;2023-07-20T02:00:00;17.90;99.90
12446;DHT22;6287;50.984;7.022;2023-07-20T02:02:27;17.90;99.90
12446;DHT22;6287;50.984;7.022;2023-07-20T02:04:53;17.90;99.90
12446;DHT22;6287;50.984;7.022;2023-07-20T02:07:19;17.90;99.90
12446;DHT22;6287;50.984;7.022;2023-07-20T02:09:45;17.90;99.90
12446;DHT22;6287;50.984;7.022;2023-07-20T02:12:11;18.00;99.90
12446;DHT22;6287;50.984;7.022;2023-07-20T02:14:36;18.00;99.90
12446;DHT22;6287;50.984;7.022;2023-07-20T02:17:02;17.90;99.90
12446;DHT22;6287;50.984;7.022;2023-07-20T02:19:30;17.90;99.90
12446;DHT22;6287;50.984;7.022;2023-07-20T02:21:58;17.90;99.90
12446;DHT22;6287;50.984;7.022;2023-07-20T02:24:23;17.90;99.90
12446;DHT22;6287;50.984;7.022;2023-07-20T02:26:50;17.90;99.90
12446;DHT22;6287;50.984;7.022;2023-07-20T02:29:18;17.90;99.90
12446;DHT22;6287;50.984;7.022;2023-07-20T02:31:43;17.80;99.90
12446;DHT22;6287;50.984;7.022;2023-07-20T02:34:09;17.80;99.90
12446;DHT22;6287;50.984;7.022;2023-07-20T02:36:37;17.70;99.90
12446;DHT22;6287;50.984;7.022;2023-07-20T02:39:03;17.60;99.90
12446;DHT22;6287;50.984;7.022;2023-07-20T02:41:30;17.60;99.90
12446;DHT22;6287;50.984;7.022;2023-07-20T02:43:56;17.50;99.90
12446;DHT22;6287;50.984;7.022;2023-07-20T02:46:26;17.50;99.90
12446;DHT22;6287;50.984;7.022;2023-07-20T02:48:54;17.50;99.90
12446;DHT22;6287;50.984;7.022;2023-07-20T02:51:22;17.40;99.90
12446;DHT22;6287;50.984;7.022;2023-07-20T02:53:47;17.40;99.90
12446;DHT22;6287;50.984;7.022;2023-07-20T02:56:13;17.40;99.90
12446;DHT22;6287;50.984;7.022;2023-07-20T02:58:41;17.30;99.90
12446;DHT22;6287;50.984;7.022;2023-07-20T03:01:11;17.20;99.90
12446;DHT22;6287;50.984;7.022;2023-07-20T03:03:37;17.20;99.90
12446;DHT22;6287;50.984;7.022;2023-07-20T03:06:06;17.20;99.90
12446;DHT22;6287;50.984;7.022;2023-07-20T03:08:34;17.20;99.90
12446;DHT22;6287;50.984;7.022;2023-07-20T03:11:05;17.20;99.90
12446;DHT22;6287;50.984;7.022;2023-07-20T03:13:30;17.20;99.90
12446;DHT22;6287;50.984;7.022;2023-07-20T03:15:57;17.20;99.90
12446;DHT22;6287;50.984;7.022;2023-07-20T03:18:25;17.20;99.90
12446;DHT22;6287;50.984;7.022;2023-07-20T03:20:52;17.20;99.90
12446;DHT22;6287;50.984;7.022;2023-07-20T03:23:18;17.20;99.90
12446;DHT22;6287;50.984;7.022;2023-07-20T03:25:44;17.20;99.90
12446;DHT22;6287;50.984;7.022;2023-07-20T03:28:14;17.20;99.90
12446;DHT22;6287;50.984;7.022;2023-07-20T03:30:40;17.30;99.90
12446;DHT22;6287;50.984;7.022;2023-07-20T03:33:06;17.30;99.90
12446;DHT22;6287;50.984;7.022;2023-07-20T03:35:34;17.30;99.90
12446;DHT22;6287;50.984;7.022;2023-07-20T03:38:02;17.30;99.90
12446;DHT22;6287;50.984;7.022;2023-07-20T03:40:30;17.30;99.90
12446;DHT22;6287;50.984;7.022;2023-07-20T03:43:01;17.30;99.90
12446;DHT22;6287;50.984;7.022;2023-07-20T03:45:27;17.30;99.90
12446;DHT22;6287;50.984;7.022;2023-07-20T03:47:55;17.30;99.90
12446;DHT22;6287;50.984;7.022;2023-07-20T03:50:24;17.30;99.90
12446;DHT22;6287;50.984;7.022;2023-07-20T03:52:49;17.30;99.90
12446;DHT22;6287;50.984;7.022;2023-07-20T03:55:17;17.30;99.90
12446;DHT22;6287;50.984;7.022;2023-07-20T03:57:43;17.40;99.90
12446;DHT22;6287;50.984;7.022;2023-07-20T04:00:09;17.40;99.90
12446;DHT22;6287;50.984;7.022;2023-07-20T04:02:35;17.40;99.90
12446;DHT22;6287;50.984;7.022;2023-07-20T04:05:00;17.40;99.90
12446;DHT22;6287;50.984;7.022;2023-07-20T04:07:28;17.30;99.90
12446;DHT22;6287;50.984;7.022;2023-07-20T04:09:54;17.30;99.90
12446;DHT22;6287;50.984;7.022;2023-07-20T04:12:22;17.40;99.90
12446;DHT22;6287;50.984;7.022;2023-07-20T04:14:47;17.40;99.90
12446;DHT22;6287;50.984;7.022;2023-07-20T04:17:18;17.40;99.90
12446;DHT22;6287;50.984;7.022;2023-07-20T04:19:43;17.40;99.90
12446;DHT22;6287;50.984;7.022;2023-07-20T04:22:09;17.50;99.90
12446;DHT22;6287;50.984;7.022;2023-07-20T04:24:37;17.50;99.90
12446;DHT22;6287;50.984;7.022;2023-07-20T04:27:07;17.50;99.90
12446;DHT22;6287;50.984;7.022;2023-07-20T04:29:35;17.50;99.90
12446;DHT22;6287;50.984;7.022;2023-07-20T04:32:04;17.50;99.90
12446;DHT22;6287;50.984;7.022;2023-07-20T04:34:32;17.50;99.90
12446;DHT22;6287;50.984;7.022;2023-07-20T04:37:00;17.60;99.90
12446;DHT22;6287;50.984;7.022;2023-07-20T04:39:25;17.60;99.90
12446;DHT22;6287;50.984;7.022;2023-07-20T04:41:51;17.60;99.90
12446;DHT22;6287;50.984;7.022;2023-07-20T04:44:16;17.60;99.90
12446;DHT22;6287;50.984;7.022;2023-07-20T04:46:42;17.60;99.90
12446;DHT22;6287;50.984;7.022;2023-07-20T04:49:07;17.70;99.90
12446;DHT22;6287;50.984;7.022;2023-07-20T04:51:35;17.70;99.90
12446;DHT22;6287;50.984;7.022;2023-07-20T04:54:01;17.70;99.90
12446;DHT22;6287;50.984;7.022;2023-07-20T04:56:29;17.70;99.90
12446;DHT22;6287;50.984;7.022;2023-07-20T04:58:57;17.70;99.90
12446;DHT22;6287;50.984;7.022;2023-07-20T05:01:23;17.80;99.90
12446;DHT22;6287;50.984;7.022;2023-07-20T05:03:49;17.80;99.90
12446;DHT22;6287;50.984;7.022;2023-07-20T05:06:15;17.80;99.90
12446;DHT22;6287;50.984;7.022;2023-07-20T05:08:41;17.80;99.90
12446;DHT22;6287;50.984;7.022;2023-07-20T05:11:09;17.80;99.90
12446;DHT22;6287;50.984;7.022;2023-07-20T05:13:38;17.80;99.90
12446;DHT22;6287;50.984;7.022;2023-07-20T05:16:04;17.80;99.90
12446;DHT22;6287;50.984;7.022;2023-07-20T05:18:30;17.90;99.90
12446;DHT22;6287;50.984;7.022;2023-07-20T05:20:56;17.90;99.90
12446;DHT22;6287;50.984;7.022;2023-07-20T05:23:24;17.90;99.90
12446;DHT22;6287;50.984;7.022;2023-07-20T05:25:57;18.00;99.90
12446;DHT22;6287;50.984;7.022;2023-07-20T05:28:25;18.00;99.90
12446;DHT22;6287;50.984;7.022;2023-07-20T05:30:56;17.90;99.90
12446;DHT22;6287;50.984;7.022;2023-07-20T05:33:22;17.90;99.90
12446;DHT22;6287;50.984;7.022;2023-07-20T05:35:48;18.00;99.90
12446;DHT22;6287;50.984;7.022;2023-07-20T05:38:16;18.10;99.90
12446;DHT22;6287;50.984;7.022;2023-07-20T05:40:43;18.10;99.90
12446;DHT22;6287;50.984;7.022;2023-07-20T05:43:10;18.10;99.90
12446;DHT22;6287;50.984;7.022;2023-07-20T05:45:36;18.20;99.90
12446;DHT22;6287;50.984;7.022;2023-07-20T05:48:02;18.20;99.90
12446;DHT22;6287;50.984;7.022;2023-07-20T05:50:30;18.20;99.90
12446;DHT22;6287;50.984;7.022;2023-07-20T05:53:00;18.30;99.90
12446;DHT22;6287;50.984;7.022;2023-07-20T05:55:28;18.30;99.90
12446;DHT22;6287;50.984;7.022;2023-07-20T05:57:54;18.40;99.90
12446;DHT22;6287;50.984;7.022;2023-07-20T06:00:21;18.40;99.90
12446;DHT22;6287;50.984;7.022;2023-07-20T06:02:53;18.40;99.90
12446;DHT22;6287;50.984;7.022;2023-07-20T06:05:22;18.40;99.90
12446;DHT22;6287;50.984;7.022;2023-07-20T06:07:49;18.40;99.90
12446;DHT22;6287;50.984;7.022;2023-07-20T06:10:14;18.30;99.90
12446;DHT22;6287;50.984;7.022;2023-07-20T06:12:40;18.40;99.90
12446;DHT22;6287;50.984;7.022;2023-07-20T06:15:24;18.50;99.90
12446;DHT22;6287;50.984;7.022;2023-07-20T06:17:51;18.60;99.90
12446;DHT22;6287;50.984;7.022;2023-07-20T06:20:19;18.70;99.90
12446;DHT22;6287;50.984;7.022;2023-07-20T06:22:47;18.70;99.90
12446;DHT22;6287;50.984;7.022;2023-07-20T06:25:13;18.70;99.90
12446;DHT22;6287;50.984;7.022;2023-07-20T06:27:38;18.80;99.90
12446;DHT22;6287;50.984;7.022;2023-07-20T06:30:04;18.90;99.90
12446;DHT22;6287;50.984;7.022;2023-07-20T06:32:30;19.10;99.90
12446;DHT22;6287;50.984;7.022;2023-07-20T06:34:56;19.20;99.90
12446;DHT22;6287;50.984;7.022;2023-07-20T06:37:23;19.40;99.90
12446;DHT22;6287;50.984;7.022;2023-07-20T06:39:49;19.60;99.90
12446;DHT22;6287;50.984;7.022;2023-07-20T06:42:15;19.60;99.90
12446;DHT22;6287;50.984;7.022;2023-07-20T06:44:45;19.70;99.90
12446;DHT22;6287;50.984;7.022;2023-07-20T06:47:15;19.70;99.90
12446;DHT22;6287;50.984;7.022;2023-07-20T06:49:43;19.70;99.90
12446;DHT22;6287;50.984;7.022;2023-07-20T06:52:09;19.70;99.90
12446;DHT22;6287;50.984;7.022;2023-07-20T06:54:35;19.90;99.90
12446;DHT22;6287;50.984;7.022;2023-07-20T06:57:00;19.90;99.90
12446;DHT22;6287;50.984;7.022;2023-07-20T06:59:26;20.00;99.90
12446;DHT22;6287;50.984;7.022;2023-07-20T07:01:56;20.20;99.90
12446;DHT22;6287;50.984;7.022;2023-07-20T07:04:27;20.20;99.90
12446;DHT22;6287;50.984;7.022;2023-07-20T07:06:53;20.30;99.90
12446;DHT22;6287;50.984;7.022;2023-07-20T07:09:21;20.40;99.90
12446;DHT22;6287;50.984;7.022;2023-07-20T07:11:52;20.40;99.90
12446;DHT22;6287;50.984;7.022;2023-07-20T07:14:21;20.40;99.90
12446;DHT22;6287;50.984;7.022;2023-07-20T07:16:48;20.40;99.90
12446;DHT22;6287;50.984;7.022;2023-07-20T07:19:16;20.50;99.90
12446;DHT22;6287;50.984;7.022;2023-07-20T07:21:42;20.60;99.90
12446;DHT22;6287;50.984;7.022;2023-07-20T07:24:10;20.80;99.90
12446;DHT22;6287;50.984;7.022;2023-07-20T07:26:36;21.10;99.90
12446;DHT22;6287;50.984;7.022;2023-07-20T07:29:03;21.30;99.90
12446;DHT22;6287;50.984;7.022;2023-07-20T07:31:29;21.50;99.90
12446;DHT22;6287;50.984;7.022;2023-07-20T07:33:55;21.70;99.90
12446;DHT22;6287;50.984;7.022;2023-07-20T07:36:24;21.80;99.90
12446;DHT22;6287;50.984;7.022;2023-07-20T07:38:54;21.90;99.90
12446;DHT22;6287;50.984;7.022;2023-07-20T07:41:20;22.00;99.90
12446;DHT22;6287;50.984;7.022;2023-07-20T07:43:46;22.10;99.90
12446;DHT22;6287;50.984;7.022;2023-07-20T07:46:14;22.30;99.90
12446;DHT22;6287;50.984;7.022;2023-07-20T07:48:42;22.50;99.90
12446;DHT22;6287;50.984;7.022;2023-07-20T07:51:08;22.50;99.90
12446;DHT22;6287;50.984;7.022;2023-07-20T07:53:36;22.50;99.90
12446;DHT22;6287;50.984;7.022;2023-07-20T07:56:06;22.50;99.90
12446;DHT22;6287;50.984;7.022;2023-07-20T07:58:32;22.50;99.90
12446;DHT22;6287;50.984;7.022;2023-07-20T08:00:57;22.40;99.90
12446;DHT22;6287;50.984;7.022;2023-07-20T08:03:25;22.20;99.90
12446;DHT22;6287;50.984;7.022;2023-07-20T08:05:54;21.90;99.90
12446;DHT22;6287;50.984;7.022;2023-07-20T08:08:25;21.70;99.90
12446;DHT22;6287;50.984;7.022;2023-07-20T08:10:54;21.40;99.90
12446;DHT22;6287;50.984;7.022;2023-07-20T08:13:22;21.20;99.90
12446;DHT22;6287;50.984;7.022;2023-07-20T08:15:50;21.20;99.90
12446;DHT22;6287;50.984;7.022;2023-07-20T08:18:23;21.30;99.90
12446;DHT22;6287;50.984;7.022;2023-07-20T08:20:48;21.70;99.90
12446;DHT22;6287;50.984;7.022;2023-07-20T08:23:14;22.10;99.90
12446;DHT22;6287;50.984;7.022;2023-07-20T08:25:42;22.60;99.90
12446;DHT22;6287;50.984;7.022;2023-07-20T08:28:15;23.20;99.90
12446;DHT22;6287;50.984;7.022;2023-07-20T08:30:46;23.50;99.90
12446;DHT22;6287;50.984;7.022;2023-07-20T08:33:17;23.50;99.90
12446;DHT22;6287;50.984;7.022;2023-07-20T08:35:46;23.30;99.90
12446;DHT22;6287;50.984;7.022;2023-07-20T08:38:12;23.10;99.90
12446;DHT22;6287;50.984;7.022;2023-07-20T08:40:45;23.00;99.90
12446;DHT22;6287;50.984;7.022;2023-07-20T08:43:14;22.80;99.90
12446;DHT22;6287;50.984;7.022;2023-07-20T08:45:44;22.90;99.90
12446;DHT22;6287;50.984;7.022;2023-07-20T08:48:12;23.10;99.90
12446;DHT22;6287;50.984;7.022;2023-07-20T08:50:43;23.20;99.90
12446;DHT22;6287;50.984;7.022;2023-07-20T08:53:12;23.50;99.90
12446;DHT22;6287;50.984;7.022;2023-07-20T08:55:48;23.90;99.90
12446;DHT22;6287;50.984;7.022;2023-07-20T08:58:15;24.40;99.90
12446;DHT22;6287;50.984;7.022;2023-07-20T09:00:41;24.70;99.10
12446;DHT22;6287;50.984;7.022;2023-07-20T09:03:07;24.70;98.40
12446;DHT22;6287;50.984;7.022;2023-07-20T09:05:34;24.40;98.60
12446;DHT22;6287;50.984;7.022;2023-07-20T09:08:03;24.20;99.50
12446;DHT22;6287;50.984;7.022;2023-07-20T09:10:31;23.90;99.10
12446;DHT22;6287;50.984;7.022;2023-07-20T09:12:57;23.70;99.00
12446;DHT22;6287;50.984;7.022;2023-07-20T09:15:25;23.50;98.00
12446;DHT22;6287;50.984;7.022;2023-07-20T09:17:51;23.40;98.40
12446;DHT22;6287;50.984;7.022;2023-07-20T09:20:19;23.70;98.50
12446;DHT22;6287;50.984;7.022;2023-07-20T09:22:45;24.00;96.90
12446;DHT22;6287;50.984;7.022;2023-07-20T09:25:16;24.30;98.00
12446;DHT22;6287;50.984;7.022;2023-07-20T09:27:47;24.30;98.20
12446;DHT22;6287;50.984;7.022;2023-07-20T09:30:16;24.40;98.40
12446;DHT22;6287;50.984;7.022;2023-07-20T09:32:47;24.30;98.30
12446;DHT22;6287;50.984;7.022;2023-07-20T09:37:39;24.20;98.40
12446;DHT22;6287;50.984;7.022;2023-07-20T09:40:07;24.10;98.30
12446;DHT22;6287;50.984;7.022;2023-07-20T09:42:37;24.20;98.00
12446;DHT22;6287;50.984;7.022;2023-07-20T09:45:09;24.30;97.90
12446;DHT22;6287;50.984;7.022;2023-07-20T09:47:39;24.40;97.30
12446;DHT22;6287;50.984;7.022;2023-07-20T09:50:07;24.50;96.70
12446;DHT22;6287;50.984;7.022;2023-07-20T09:52:40;24.50;96.20
12446;DHT22;6287;50.984;7.022;2023-07-20T09:55:07;24.80;97.70
12446;DHT22;6287;50.984;7.022;2023-07-20T09:57:36;25.20;96.40
12446;DHT22;6287;50.984;7.022;2023-07-20T10:00:04;25.50;96.10
12446;DHT22;6287;50.984;7.022;2023-07-20T10:02:40;26.00;96.60
12446;DHT22;6287;50.984;7.022;2023-07-20T10:05:08;26.40;95.10
12446;DHT22;6287;50.984;7.022;2023-07-20T10:07:43;26.50;94.50
12446;DHT22;6287;50.984;7.022;2023-07-20T10:10:14;26.40;93.60
12446;DHT22;6287;50.984;7.022;2023-07-20T10:12:41;26.30;93.00
12446;DHT22;6287;50.984;7.022;2023-07-20T10:15:19;26.30;94.20
12446;DHT22;6287;50.984;7.022;2023-07-20T10:17:57;26.50;94.00
12446;DHT22;6287;50.984;7.022;2023-07-20T10:20:26;26.80;94.00
12446;DHT22;6287;50.984;7.022;2023-07-20T10:22:53;27.10;92.70
12446;DHT22;6287;50.984;7.022;2023-07-20T10:25:25;27.00;92.00
12446;DHT22;6287;50.984;7.022;2023-07-20T10:27:53;26.80;92.30
12446;DHT22;6287;50.984;7.022;2023-07-20T10:30:20;26.50;92.20
12446;DHT22;6287;50.984;7.022;2023-07-20T10:32:48;26.20;92.50
12446;DHT22;6287;50.984;7.022;2023-07-20T10:35:15;26.20;92.30
12446;DHT22;6287;50.984;7.022;2023-07-20T10:37:47;26.30;92.50
12446;DHT22;6287;50.984;7.022;2023-07-20T10:43:07;26.70;91.60
12446;DHT22;6287;50.984;7.022;2023-07-20T10:45:53;26.70;91.10
12446;DHT22;6287;50.984;7.022;2023-07-20T10:48:22;26.70;90.00
12446;DHT22;6287;50.984;7.022;2023-07-20T10:51:13;26.60;90.40
12446;DHT22;6287;50.984;7.022;2023-07-20T10:53:46;26.70;90.00
12446;DHT22;6287;50.984;7.022;2023-07-20T10:56:14;27.10;90.60
12446;DHT22;6287;50.984;7.022;2023-07-20T10:58:41;27.60;90.00
12446;DHT22;6287;50.984;7.022;2023-07-20T11:01:08;27.90;89.10
12446;DHT22;6287;50.984;7.022;2023-07-20T11:03:36;27.90;87.70
12446;DHT22;6287;50.984;7.022;2023-07-20T11:09:05;28.10;87.90
12446;DHT22;6287;50.984;7.022;2023-07-20T11:11:34;28.50;87.10
12446;DHT22;6287;50.984;7.022;2023-07-20T11:14:11;28.90;83.60
12446;DHT22;6287;50.984;7.022;2023-07-20T11:16:46;29.10;81.80
12446;DHT22;6287;50.984;7.022;2023-07-20T11:21:47;29.20;78.80
12446;DHT22;6287;50.984;7.022;2023-07-20T11:24:15;29.40;78.70
12446;DHT22;6287;50.984;7.022;2023-07-20T11:29:14;29.90;72.90
12446;DHT22;6287;50.984;7.022;2023-07-20T11:31:41;29.90;69.40
12446;DHT22;6287;50.984;7.022;2023-07-20T11:34:25;29.50;69.50
12446;DHT22;6287;50.984;7.022;2023-07-20T11:36:51;29.40;71.10
12446;DHT22;6287;50.984;7.022;2023-07-20T11:39:21;29.30;71.00
12446;DHT22;6287;50.984;7.022;2023-07-20T11:41:54;29.30;71.80
12446;DHT22;6287;50.984;7.022;2023-07-20T11:44:28;29.30;71.70
12446;DHT22;6287;50.984;7.022;2023-07-20T11:49:34;29.00;68.90
12446;DHT22;6287;50.984;7.022;2023-07-20T11:52:00;29.00;70.50
12446;DHT22;6287;50.984;7.022;2023-07-20T11:54:26;29.00;69.10
12446;DHT22;6287;50.984;7.022;2023-07-20T11:56:55;29.00;68.20
12446;DHT22;6287;50.984;7.022;2023-07-20T11:59:24;29.20;69.40
12446;DHT22;6287;50.984;7.022;2023-07-20T12:01:52;29.30;67.20
12446;DHT22;6287;50.984;7.022;2023-07-20T12:04:23;29.00;68.10
12446;DHT22;6287;50.984;7.022;2023-07-20T12:06:48;28.70;68.90
12446;DHT22;6287;50.984;7.022;2023-07-20T12:09:17;28.40;69.50
12446;DHT22;6287;50.984;7.022;2023-07-20T12:11:43;28.10;72.00
12446;DHT22;6287;50.984;7.022;2023-07-20T12:14:10;27.90;73.50
12446;DHT22;6287;50.984;7.022;2023-07-20T12:16:37;27.70;72.50
12446;DHT22;6287;50.984;7.022;2023-07-20T12:19:10;27.40;72.00
12446;DHT22;6287;50.984;7.022;2023-07-20T12:21:38;27.30;73.70
12446;DHT22;6287;50.984;7.022;2023-07-20T12:24:04;27.10;73.60
12446;DHT22;6287;50.984;7.022;2023-07-20T12:26:31;26.90;73.60
12446;DHT22;6287;50.984;7.022;2023-07-20T12:28:57;26.70;75.90
12446;DHT22;6287;50.984;7.022;2023-07-20T12:31:25;26.60;76.10
12446;DHT22;6287;50.984;7.022;2023-07-20T12:33:51;26.50;77.10
12446;DHT22;6287;50.984;7.022;2023-07-20T12:36:20;26.30;77.00
12446;DHT22;6287;50.984;7.022;2023-07-20T12:38:46;26.20;76.00
12446;DHT22;6287;50.984;7.022;2023-07-20T12:41:15;26.10;76.50
12446;DHT22;6287;50.984;7.022;2023-07-20T12:43:41;25.90;75.80
12446;DHT22;6287;50.984;7.022;2023-07-20T12:46:08;25.90;77.10
12446;DHT22;6287;50.984;7.022;2023-07-20T12:48:36;25.80;76.50
12446;DHT22;6287;50.984;7.022;2023-07-20T12:51:03;25.80;78.50
12446;DHT22;6287;50.984;7.022;2023-07-20T12:53:30;25.80;78.40
12446;DHT22;6287;50.984;7.022;2023-07-20T12:55:58;25.90;77.80
12446;DHT22;6287;50.984;7.022;2023-07-20T12:58:26;26.00;77.20
12446;DHT22;6287;50.984;7.022;2023-07-20T13:00:54;26.10;76.10
12446;DHT22;6287;50.984;7.022;2023-07-20T13:03:20;26.20;74.90
12446;DHT22;6287;50.984;7.022;2023-07-20T13:05:46;26.30;77.90
12446;DHT22;6287;50.984;7.022;2023-07-20T13:08:12;26.40;75.70
12446;DHT22;6287;50.984;7.022;2023-07-20T13:10:38;26.50;74.80
12446;DHT22;6287;50.984;7.022;2023-07-20T13:13:04;26.40;76.10
12446;DHT22;6287;50.984;7.022;2023-07-20T13:15:31;26.60;74.20
12446;DHT22;6287;50.984;7.022;2023-07-20T13:17:59;26.80;75.80
12446;DHT22;6287;50.984;7.022;2023-07-20T13:20:26;27.10;74.30
12446;DHT22;6287;50.984;7.022;2023-07-20T13:22:51;27.60;71.00
12446;DHT22;6287;50.984;7.022;2023-07-20T13:25:17;28.00;69.50
12446;DHT22;6287;50.984;7.022;2023-07-20T13:27:46;28.60;71.40
12446;DHT22;6287;50.984;7.022;2023-07-20T13:30:12;29.60;68.90
12446;DHT22;6287;50.984;7.022;2023-07-20T13:32:45;30.30;65.00
12446;DHT22;6287;50.984;7.022;2023-07-20T13:35:14;30.20;64.50
12446;DHT22;6287;50.984;7.022;2023-07-20T13:37:45;29.90;65.40
12446;DHT22;6287;50.984;7.022;2023-07-20T13:40:10;29.60;65.70
12446;DHT22;6287;50.984;7.022;2023-07-20T13:42:39;29.30;64.80
12446;DHT22;6287;50.984;7.022;2023-07-20T13:45:08;29.00;66.70
12446;DHT22;6287;50.984;7.022;2023-07-20T13:47:36;28.70;66.80
12446;DHT22;6287;50.984;7.022;2023-07-20T13:50:05;28.50;67.50
12446;DHT22;6287;50.984;7.022;2023-07-20T13:52:33;28.20;68.00
12446;DHT22;6287;50.984;7.022;2023-07-20T13:54:59;28.00;67.90
12446;DHT22;6287;50.984;7.022;2023-07-20T13:57:27;27.80;67.40
12446;DHT22;6287;50.984;7.022;2023-07-20T13:59:55;27.60;68.40
12446;DHT22;6287;50.984;7.022;2023-07-20T14:02:21;27.50;68.10
12446;DHT22;6287;50.984;7.022;2023-07-20T14:04:51;27.40;68.60
12446;DHT22;6287;50.984;7.022;2023-07-20T14:09:46;27.30;69.30
12446;DHT22;6287;50.984;7.022;2023-07-20T14:12:14;27.40;70.50
12446;DHT22;6287;50.984;7.022;2023-07-20T14:14:42;27.90;67.00
12446;DHT22;6287;50.984;7.022;2023-07-20T14:17:08;28.70;68.20
12446;DHT22;6287;50.984;7.022;2023-07-20T14:19:37;29.50;65.80
12446;DHT22;6287;50.984;7.022;2023-07-20T14:22:03;29.90;63.80
12446;DHT22;6287;50.984;7.022;2023-07-20T14:24:29;30.00;62.30
12446;DHT22;6287;50.984;7.022;2023-07-20T14:26:57;30.80;62.50
12446;DHT22;6287;50.984;7.022;2023-07-20T14:29:25;31.10;59.10
12446;DHT22;6287;50.984;7.022;2023-07-20T14:31:56;31.00;57.20
12446;DHT22;6287;50.984;7.022;2023-07-20T14:34:22;30.60;58.40
12446;DHT22;6287;50.984;7.022;2023-07-20T14:36:50;30.00;60.20
12446;DHT22;6287;50.984;7.022;2023-07-20T14:39:15;29.90;62.40
12446;DHT22;6287;50.984;7.022;2023-07-20T14:41:41;30.00;60.90
12446;DHT22;6287;50.984;7.022;2023-07-20T14:44:34;30.30;58.60
12446;DHT22;6287;50.984;7.022;2023-07-20T14:47:05;30.60;57.20
12446;DHT22;6287;50.984;7.022;2023-07-20T14:49:30;30.80;56.30
12446;DHT22;6287;50.984;7.022;2023-07-20T14:51:56;31.50;54.30
12446;DHT22;6287;50.984;7.022;2023-07-20T14:54:24;31.60;55.40
12446;DHT22;6287;50.984;7.022;2023-07-20T14:56:52;31.70;52.50
12446;DHT22;6287;50.984;7.022;2023-07-20T14:59:18;31.50;52.90
12446;DHT22;6287;50.984;7.022;2023-07-20T15:01:47;31.20;54.30
12446;DHT22;6287;50.984;7.022;2023-07-20T15:04:13;31.20;54.20
12446;DHT22;6287;50.984;7.022;2023-07-20T15:06:40;30.90;54.40
12446;DHT22;6287;50.984;7.022;2023-07-20T15:09:05;30.80;57.10
12446;DHT22;6287;50.984;7.022;2023-07-20T15:11:36;30.70;56.40
12446;DHT22;6287;50.984;7.022;2023-07-20T15:14:01;30.70;55.30
12446;DHT22;6287;50.984;7.022;2023-07-20T15:16:32;30.70;56.60
12446;DHT22;6287;50.984;7.022;2023-07-20T15:19:00;30.80;57.40
12446;DHT22;6287;50.984;7.022;2023-07-20T15:21:25;30.80;56.80
12446;DHT22;6287;50.984;7.022;2023-07-20T15:23:57;30.50;57.60
12446;DHT22;6287;50.984;7.022;2023-07-20T15:26:23;30.00;58.30
12446;DHT22;6287;50.984;7.022;2023-07-20T15:28:49;29.50;58.70
12446;DHT22;6287;50.984;7.022;2023-07-20T15:31:17;29.00;60.50
12446;DHT22;6287;50.984;7.022;2023-07-20T15:33:43;29.00;61.30
12446;DHT22;6287;50.984;7.022;2023-07-20T15:36:08;29.50;60.90
12446;DHT22;6287;50.984;7.022;2023-07-20T15:38:34;29.80;59.70
12446;DHT22;6287;50.984;7.022;2023-07-20T15:41:02;29.70;59.70
12446;DHT22;6287;50.984;7.022;2023-07-20T15:43:33;29.40;58.30
12446;DHT22;6287;50.984;7.022;2023-07-20T15:48:43;29.70;59.70
12446;DHT22;6287;50.984;7.022;2023-07-20T15:51:09;29.90;59.50
12446;DHT22;6287;50.984;7.022;2023-07-20T15:53:35;29.90;59.20
12446;DHT22;6287;50.984;7.022;2023-07-20T15:56:05;29.80;59.30
12446;DHT22;6287;50.984;7.022;2023-07-20T15:58:31;30.00;59.50
12446;DHT22;6287;50.984;7.022;2023-07-20T16:00:59;30.80;57.50
12446;DHT22;6287;50.984;7.022;2023-07-20T16:03:27;30.80;58.10
12446;DHT22;6287;50.984;7.022;2023-07-20T16:05:53;30.90;56.90
12446;DHT22;6287;50.984;7.022;2023-07-20T16:08:19;31.00;56.90
12446;DHT22;6287;50.984;7.022;2023-07-20T16:10:44;31.20;56.20
12446;DHT22;6287;50.984;7.022;2023-07-20T16:13:10;31.40;56.80
12446;DHT22;6287;50.984;7.022;2023-07-20T16:15:36;31.50;56.00
12446;DHT22;6287;50.984;7.022;2023-07-20T16:18:01;31.60;54.20
12446;DHT22;6287;50.984;7.022;2023-07-20T16:20:27;31.60;54.30
12446;DHT22;6287;50.984;7.022;2023-07-20T16:22:53;31.70;55.10
12446;DHT22;6287;50.984;7.022;2023-07-20T16:25:21;31.80;53.20
12446;DHT22;6287;50.984;7.022;2023-07-20T16:27:49;31.80;53.10